sensor_id;sensor_type;location;lat;lon;timestamp;temperature;humidity
26186;DHT22;20067;48.764;9.176;2023-09-07T00:01:20;19.00;91.30
26186;DHT22;20067;48.764;9.176;2023-09-07T00:03:45;19.20;91.30
26186;DHT22;20067;48.764;9.176;2023-09-07T00:06:11;19.50;90.50
26186;DHT22;20067;48.764;9.176;2023-09-07T00:08:37;19.80;89.60
26186;DHT22;20067;48.764;9.176;2023-09-07T00:11:07;19.30;90.00
26186;DHT22;20067;48.764;9.176;2023-09-07T00:13:34;19.20;90.90
26186;DHT22;20067;48.764;9.176;2023-09-07T00:16:00;19.00;91.10
26186;DHT22;20067;48.764;9.176;2023-09-07T00:18:26;18.90;91.30
26186;DHT22;20067;48.764;9.176;2023-09-07T00:20:52;18.90;91.30
26186;DHT22;20067;48.764;9.176;2023-09-07T00:23:18;18.90;91.30
26186;DHT22;20067;48.764;9.176;2023-09-07T00:25:45;19.00;91.30
26186;DHT22;20067;48.764;9.176;2023-09-07T00:28:11;18.80;91.30
26186;DHT22;20067;48.764;9.176;2023-09-07T00:30:36;18.70;91.30
26186;DHT22;20067;48.764;9.176;2023-09-07T00:33:02;18.70;91.30
26186;DHT22;20067;48.764;9.176;2023-09-07T00:35:28;18.50;91.30
26186;DHT22;20067;48.764;9.176;2023-09-07T00:37:53;18.20;91.30
26186;DHT22;20067;48.764;9.176;2023-09-07T00:40:20;18.20;91.30
26186;DHT22;20067;48.764;9.176;2023-09-07T00:42:46;18.30;91.30
26186;DHT22;20067;48.764;9.176;2023-09-07T00:45:11;18.30;91.30
26186;DHT22;20067;48.764;9.176;2023-09-07T00:47:38;18.30;91.30
26186;DHT22;20067;48.764;9.176;2023-09-07T00:50:05;18.50;91.30
26186;DHT22;20067;48.764;9.176;2023-09-07T00:52:32;18.10;91.30
26186;DHT22;20067;48.764;9.176;2023-09-07T00:54:59;18.10;91.30
26186;DHT22;20067;48.764;9.176;2023-09-07T00:57:25;18.20;91.30
26186;DHT22;20067;48.764;9.176;2023-09-07T00:59:50;18.20;91.30
26186;DHT22;20067;48.764;9.176;2023-09-07T01:02:16;18.00;91.30
26186;DHT22;20067;48.764;9.176;2023-09-07T01:04:42;18.00;91.30
26186;DHT22;20067;48.764;9.176;2023-09-07T01:07:35;18.20;91.30
26186;DHT22;20067;48.764;9.176;2023-09-07T01:10:02;18.20;91.30
26186;DHT22;20067;48.764;9.176;2023-09-07T01:12:28;18.60;91.30
26186;DHT22;20067;48.764;9.176;2023-09-07T01:14:54;18.20;91.30
26186;DHT22;20067;48.764;9.176;2023-09-07T01:17:20;18.50;91.30
26186;DHT22;20067;48.764;9.176;2023-09-07T01:19:50;18.50;91.30
26186;DHT22;20067;48.764;9.176;2023-09-07T01:22:21;18.30;91.30
26186;DHT22;20067;48.764;9.176;2023-09-07T01:24:51;18.50;91.30
26186;DHT22;20067;48.764;9.176;2023-09-07T01:27:18;18.50;91.30
26186;DHT22;20067;48.764;9.176;2023-09-07T01:29:44;18.50;91.30
26186;DHT22;20067;48.764;9.176;2023-09-07T01:32:10;18.60;91.30
26186;DHT22;20067;48.764;9.176;2023-09-07T01:34:36;18.30;91.30
26186;DHT22;20067;48.764;9.176;2023-09-07T01:37:02;18.50;91.30
26186;DHT22;20067;48.764;9.176;2023-09-07T01:39:28;18.50;91.30
26186;DHT22;20067;48.764;9.176;2023-09-07T01:41:53;18.10;91.30
26186;DHT22;20067;48.764;9.176;2023-09-07T01:44:19;18.20;91.30
26186;DHT22;20067;48.764;9.176;2023-09-07T01:46:45;18.20;91.30
26186;DHT22;20067;48.764;9.176;2023-09-07T01:49:10;18.10;91.30
26186;DHT22;20067;48.764;9.176;2023-09-07T01:51:36;18.20;91.30
26186;DHT22;20067;48.764;9.176;2023-09-07T01:54:02;18.30;91.30
26186;DHT22;20067;48.764;9.176;2023-09-07T01:56:28;18.30;91.30
26186;DHT22;20067;48.764;9.176;2023-09-07T01:58:54;17.90;91.30
26186;DHT22;20067;48.764;9.176;2023-09-07T02:01:31;17.70;91.30
26186;DHT22;20067;48.764;9.176;2023-09-07T02:03:57;17.90;91.30
26186;DHT22;20067;48.764;9.176;2023-09-07T02:06:23;17.60;91.30
26186;DHT22;20067;48.764;9.176;2023-09-07T02:08:49;17.80;91.30
26186;DHT22;20067;48.764;9.176;2023-09-07T02:11:15;17.80;91.30
26186;DHT22;20067;48.764;9.176;2023-09-07T02:13:45;17.40;91.30
26186;DHT22;20067;48.764;9.176;2023-09-07T02:16:11;17.40;91.30
26186;DHT22;20067;48.764;9.176;2023-09-07T02:18:37;17.90;91.30
26186;DHT22;20067;48.764;9.176;2023-09-07T02:21:05;17.80;91.30
26186;DHT22;20067;48.764;9.176;2023-09-07T02:23:32;17.70;91.30
26186;DHT22;20067;48.764;9.176;2023-09-07T02:25:58;17.40;91.30
26186;DHT22;20067;48.764;9.176;2023-09-07T02:28:24;17.50;91.30
26186;DHT22;20067;48.764;9.176;2023-09-07T02:30:50;17.70;91.30
26186;DHT22;20067;48.764;9.176;2023-09-07T02:33:16;17.60;91.30
26186;DHT22;20067;48.764;9.176;2023-09-07T02:35:41;17.30;91.30
26186;DHT22;20067;48.764;9.176;2023-09-07T02:38:07;17.10;91.30
26186;DHT22;20067;48.764;9.176;2023-09-07T02:40:33;17.20;91.30
26186;DHT22;20067;48.764;9.176;2023-09-07T02:43:04;17.10;91.30
26186;DHT22;20067;48.764;9.176;2023-09-07T02:45:30;17.40;91.30
26186;DHT22;20067;48.764;9.176;2023-09-07T02:47:56;17.30;91.30
26186;DHT22;20067;48.764;9.176;2023-09-07T02:50:22;17.00;91.30
26186;DHT22;20067;48.764;9.176;2023-09-07T02:52:48;17.00;91.30
26186;DHT22;20067;48.764;9.176;2023-09-07T02:55:13;17.20;91.30
26186;DHT22;20067;48.764;9.176;2023-09-07T02:57:39;17.40;91.30
26186;DHT22;20067;48.764;9.176;2023-09-07T03:00:05;17.50;91.30
26186;DHT22;20067;48.764;9.176;2023-09-07T03:02:35;17.50;91.30
26186;DHT22;20067;48.764;9.176;2023-09-07T03:05:04;17.40;91.30
26186;DHT22;20067;48.764;9.176;2023-09-07T03:07:33;17.20;91.30
26186;DHT22;20067;48.764;9.176;2023-09-07T03:09:59;17.10;91.30
26186;DHT22;20067;48.764;9.176;2023-09-07T03:12:25;17.00;91.30
26186;DHT22;20067;48.764;9.176;2023-09-07T03:14:51;16.90;91.30
26186;DHT22;20067;48.764;9.176;2023-09-07T03:17:19;17.10;91.30
26186;DHT22;20067;48.764;9.176;2023-09-07T03:19:48;17.20;91.30
26186;DHT22;20067;48.764;9.176;2023-09-07T03:22:14;17.40;91.30
26186;DHT22;20067;48.764;9.176;2023-09-07T03:24:40;17.50;91.30
26186;DHT22;20067;48.764;9.176;2023-09-07T03:27:06;17.40;91.30
26186;DHT22;20067;48.764;9.176;2023-09-07T03:29:32;17.00;91.30
26186;DHT22;20067;48.764;9.176;2023-09-07T03:32:01;16.80;91.30
26186;DHT22;20067;48.764;9.176;2023-09-07T03:34:27;16.80;91.30
26186;DHT22;20067;48.764;9.176;2023-09-07T03:36:52;17.20;91.30
26186;DHT22;20067;48.764;9.176;2023-09-07T03:39:18;17.20;91.30
26186;DHT22;20067;48.764;9.176;2023-09-07T03:41:44;17.40;91.30
26186;DHT22;20067;48.764;9.176;2023-09-07T03:44:10;17.20;91.30
26186;DHT22;20067;48.764;9.176;2023-09-07T03:46:36;17.10;91.30
26186;DHT22;20067;48.764;9.176;2023-09-07T03:49:02;17.10;91.30
26186;DHT22;20067;48.764;9.176;2023-09-07T03:51:28;17.40;91.30
26186;DHT22;20067;48.764;9.176;2023-09-07T03:53:53;17.30;91.30
26186;DHT22;20067;48.764;9.176;2023-09-07T03:56:19;17.20;91.30
26186;DHT22;20067;48.764;9.176;2023-09-07T03:58:45;17.10;91.30
26186;DHT22;20067;48.764;9.176;2023-09-07T04:01:13;16.90;91.30
26186;DHT22;20067;48.764;9.176;2023-09-07T04:03:39;16.70;91.30
26186;DHT22;20067;48.764;9.176;2023-09-07T04:06:06;17.00;91.30
26186;DHT22;20067;48.764;9.176;2023-09-07T04:08:32;16.80;91.30
26186;DHT22;20067;48.764;9.176;2023-09-07T04:10:58;17.00;91.30
26186;DHT22;20067;48.764;9.176;2023-09-07T04:13:23;17.20;91.30
26186;DHT22;20067;48.764;9.176;2023-09-07T04:15:49;17.30;91.30
26186;DHT22;20067;48.764;9.176;2023-09-07T04:18:15;17.10;91.30
26186;DHT22;20067;48.764;9.176;2023-09-07T04:20:42;16.80;91.30
26186;DHT22;20067;48.764;9.176;2023-09-07T04:23:08;16.80;91.30
26186;DHT22;20067;48.764;9.176;2023-09-07T04:25:34;17.10;91.30
26186;DHT22;20067;48.764;9.176;2023-09-07T04:27:59;16.70;91.30
26186;DHT22;20067;48.764;9.176;2023-09-07T04:30:25;16.20;91.30
26186;DHT22;20067;48.764;9.176;2023-09-07T04:32:51;16.50;91.30
26186;DHT22;20067;48.764;9.176;2023-09-07T04:35:17;16.10;91.30
26186;DHT22;20067;48.764;9.176;2023-09-07T04:37:43;16.30;91.30
26186;DHT22;20067;48.764;9.176;2023-09-07T04:40:09;16.50;91.30
26186;DHT22;20067;48.764;9.176;2023-09-07T04:42:35;16.60;91.30
26186;DHT22;20067;48.764;9.176;2023-09-07T04:45:02;16.50;91.30
26186;DHT22;20067;48.764;9.176;2023-09-07T04:47:28;16.60;91.30
26186;DHT22;20067;48.764;9.176;2023-09-07T04:49:54;16.50;91.30
26186;DHT22;20067;48.764;9.176;2023-09-07T04:52:19;16.50;91.30
26186;DHT22;20067;48.764;9.176;2023-09-07T04:54:45;16.30;91.30
26186;DHT22;20067;48.764;9.176;2023-09-07T04:57:11;16.30;91.30
26186;DHT22;20067;48.764;9.176;2023-09-07T04:59:37;16.60;91.30
26186;DHT22;20067;48.764;9.176;2023-09-07T05:02:03;16.70;91.30
26186;DHT22;20067;48.764;9.176;2023-09-07T05:04:29;16.80;91.30
26186;DHT22;20067;48.764;9.176;2023-09-07T05:06:56;16.80;91.30
26186;DHT22;20067;48.764;9.176;2023-09-07T05:09:22;16.80;91.30
26186;DHT22;20067;48.764;9.176;2023-09-07T05:11:49;17.10;91.30
26186;DHT22;20067;48.764;9.176;2023-09-07T05:14:14;17.20;91.30
26186;DHT22;20067;48.764;9.176;2023-09-07T05:16:43;17.10;91.30
26186;DHT22;20067;48.764;9.176;2023-09-07T05:19:09;16.70;91.30
26186;DHT22;20067;48.764;9.176;2023-09-07T05:21:35;17.00;91.30
26186;DHT22;20067;48.764;9.176;2023-09-07T05:24:00;17.20;91.30
26186;DHT22;20067;48.764;9.176;2023-09-07T05:26:26;17.00;91.30
26186;DHT22;20067;48.764;9.176;2023-09-07T05:28:53;17.00;91.30
26186;DHT22;20067;48.764;9.176;2023-09-07T05:31:19;17.00;91.30
26186;DHT22;20067;48.764;9.176;2023-09-07T05:33:44;17.10;91.30
26186;DHT22;20067;48.764;9.176;2023-09-07T05:36:10;16.80;91.30
26186;DHT22;20067;48.764;9.176;2023-09-07T05:38:36;17.10;91.30
26186;DHT22;20067;48.764;9.176;2023-09-07T05:41:02;16.80;91.30
26186;DHT22;20067;48.764;9.176;2023-09-07T05:43:28;17.00;91.30
26186;DHT22;20067;48.764;9.176;2023-09-07T05:45:53;17.00;91.30
26186;DHT22;20067;48.764;9.176;2023-09-07T05:48:19;17.20;91.30
26186;DHT22;20067;48.764;9.176;2023-09-07T05:50:45;17.50;91.30
26186;DHT22;20067;48.764;9.176;2023-09-07T05:53:11;17.20;91.30
26186;DHT22;20067;48.764;9.176;2023-09-07T05:55:36;17.20;91.30
26186;DHT22;20067;48.764;9.176;2023-09-07T05:58:07;17.20;91.30
26186;DHT22;20067;48.764;9.176;2023-09-07T06:00:34;17.40;91.30
26186;DHT22;20067;48.764;9.176;2023-09-07T06:03:00;17.20;91.30
26186;DHT22;20067;48.764;9.176;2023-09-07T06:05:26;17.30;91.30
26186;DHT22;20067;48.764;9.176;2023-09-07T06:07:51;17.50;91.30
26186;DHT22;20067;48.764;9.176;2023-09-07T06:10:17;17.70;91.30
26186;DHT22;20067;48.764;9.176;2023-09-07T06:12:44;17.80;91.30
26186;DHT22;20067;48.764;9.176;2023-09-07T06:15:10;17.60;91.30
26186;DHT22;20067;48.764;9.176;2023-09-07T06:17:36;17.50;91.30
26186;DHT22;20067;48.764;9.176;2023-09-07T06:20:02;17.60;91.30
26186;DHT22;20067;48.764;9.176;2023-09-07T06:22:28;17.50;91.30
26186;DHT22;20067;48.764;9.176;2023-09-07T06:24:54;17.50;91.30
26186;DHT22;20067;48.764;9.176;2023-09-07T06:27:20;17.30;91.30
26186;DHT22;20067;48.764;9.176;2023-09-07T06:29:46;17.40;91.30
26186;DHT22;20067;48.764;9.176;2023-09-07T06:32:12;17.60;91.30
26186;DHT22;20067;48.764;9.176;2023-09-07T06:34:38;17.60;91.30
26186;DHT22;20067;48.764;9.176;2023-09-07T06:37:04;17.80;91.30
26186;DHT22;20067;48.764;9.176;2023-09-07T06:39:30;17.90;91.30
26186;DHT22;20067;48.764;9.176;2023-09-07T06:41:55;17.90;91.30
26186;DHT22;20067;48.764;9.176;2023-09-07T06:44:21;17.90;91.30
26186;DHT22;20067;48.764;9.176;2023-09-07T06:46:47;17.90;91.30
26186;DHT22;20067;48.764;9.176;2023-09-07T06:49:13;17.90;91.30
26186;DHT22;20067;48.764;9.176;2023-09-07T06:51:38;17.70;91.30
26186;DHT22;20067;48.764;9.176;2023-09-07T06:54:04;17.70;91.30
26186;DHT22;20067;48.764;9.176;2023-09-07T06:56:30;18.00;91.30
26186;DHT22;20067;48.764;9.176;2023-09-07T06:58:57;18.20;91.30
26186;DHT22;20067;48.764;9.176;2023-09-07T07:01:23;18.30;91.30
26186;DHT22;20067;48.764;9.176;2023-09-07T07:03:49;18.40;91.30
26186;DHT22;20067;48.764;9.176;2023-09-07T07:06:15;18.40;91.30
26186;DHT22;20067;48.764;9.176;2023-09-07T07:08:41;18.40;91.30
26186;DHT22;20067;48.764;9.176;2023-09-07T07:11:07;18.50;91.30
26186;DHT22;20067;48.764;9.176;2023-09-07T07:13:33;18.50;91.30
26186;DHT22;20067;48.764;9.176;2023-09-07T07:15:59;18.60;91.30
26186;DHT22;20067;48.764;9.176;2023-09-07T07:18:24;18.60;91.30
26186;DHT22;20067;48.764;9.176;2023-09-07T07:20:50;18.70;91.30
26186;DHT22;20067;48.764;9.176;2023-09-07T07:23:18;18.70;91.30
26186;DHT22;20067;48.764;9.176;2023-09-07T07:25:44;19.00;91.30
26186;DHT22;20067;48.764;9.176;2023-09-07T07:28:10;19.10;91.30
26186;DHT22;20067;48.764;9.176;2023-09-07T07:30:37;19.20;91.30
26186;DHT22;20067;48.764;9.176;2023-09-07T07:33:04;19.20;91.30
26186;DHT22;20067;48.764;9.176;2023-09-07T07:35:33;19.10;91.30
26186;DHT22;20067;48.764;9.176;2023-09-07T07:38:00;19.20;91.30
26186;DHT22;20067;48.764;9.176;2023-09-07T07:40:26;19.40;91.30
26186;DHT22;20067;48.764;9.176;2023-09-07T07:42:52;19.60;91.30
26186;DHT22;20067;48.764;9.176;2023-09-07T07:45:18;20.10;91.30
26186;DHT22;20067;48.764;9.176;2023-09-07T07:47:45;20.80;90.20
26186;DHT22;20067;48.764;9.176;2023-09-07T07:50:11;21.30;88.90
26186;DHT22;20067;48.764;9.176;2023-09-07T07:52:37;21.70;87.20
26186;DHT22;20067;48.764;9.176;2023-09-07T07:55:02;22.20;86.10
26186;DHT22;20067;48.764;9.176;2023-09-07T07:57:28;22.40;85.00
26186;DHT22;20067;48.764;9.176;2023-09-07T07:59:55;22.90;82.80
26186;DHT22;20067;48.764;9.176;2023-09-07T08:02:23;23.30;82.90
26186;DHT22;20067;48.764;9.176;2023-09-07T08:04:49;23.50;81.30
26186;DHT22;20067;48.764;9.176;2023-09-07T08:07:15;23.20;81.40
26186;DHT22;20067;48.764;9.176;2023-09-07T08:09:40;23.10;82.00
26186;DHT22;20067;48.764;9.176;2023-09-07T08:12:06;22.90;82.10
26186;DHT22;20067;48.764;9.176;2023-09-07T08:14:33;23.00;83.50
26186;DHT22;20067;48.764;9.176;2023-09-07T08:16:59;23.40;82.50
26186;DHT22;20067;48.764;9.176;2023-09-07T08:19:25;24.50;79.00
26186;DHT22;20067;48.764;9.176;2023-09-07T08:21:54;24.60;78.20
26186;DHT22;20067;48.764;9.176;2023-09-07T08:24:22;24.30;77.60
26186;DHT22;20067;48.764;9.176;2023-09-07T08:26:47;24.30;78.30
26186;DHT22;20067;48.764;9.176;2023-09-07T08:29:16;23.80;79.80
26186;DHT22;20067;48.764;9.176;2023-09-07T08:31:42;23.70;80.00
26186;DHT22;20067;48.764;9.176;2023-09-07T08:34:10;24.60;79.80
26186;DHT22;20067;48.764;9.176;2023-09-07T08:36:40;25.40;77.50
26186;DHT22;20067;48.764;9.176;2023-09-07T08:39:06;24.90;78.50
26186;DHT22;20067;48.764;9.176;2023-09-07T08:41:39;25.50;76.30
26186;DHT22;20067;48.764;9.176;2023-09-07T08:44:18;25.60;75.70
26186;DHT22;20067;48.764;9.176;2023-09-07T08:46:50;25.20;77.20
26186;DHT22;20067;48.764;9.176;2023-09-07T08:49:17;25.40;76.70
26186;DHT22;20067;48.764;9.176;2023-09-07T08:51:46;26.00;75.10
26186;DHT22;20067;48.764;9.176;2023-09-07T08:54:13;26.40;75.00
26186;DHT22;20067;48.764;9.176;2023-09-07T08:56:38;26.80;73.90
26186;DHT22;20067;48.764;9.176;2023-09-07T08:59:05;26.90;71.90
26186;DHT22;20067;48.764;9.176;2023-09-07T09:01:31;25.60;74.50
26186;DHT22;20067;48.764;9.176;2023-09-07T09:04:00;25.40;77.40
26186;DHT22;20067;48.764;9.176;2023-09-07T09:06:26;26.50;74.10
26186;DHT22;20067;48.764;9.176;2023-09-07T09:08:53;26.20;75.40
26186;DHT22;20067;48.764;9.176;2023-09-07T09:11:20;25.60;75.50
26186;DHT22;20067;48.764;9.176;2023-09-07T09:13:47;25.30;76.20
26186;DHT22;20067;48.764;9.176;2023-09-07T09:16:13;25.10;77.00
26186;DHT22;20067;48.764;9.176;2023-09-07T09:21:15;26.80;74.10
26186;DHT22;20067;48.764;9.176;2023-09-07T09:23:41;27.40;73.20
26186;DHT22;20067;48.764;9.176;2023-09-07T09:26:07;27.90;70.30
26186;DHT22;20067;48.764;9.176;2023-09-07T09:28:34;27.50;72.10
26186;DHT22;20067;48.764;9.176;2023-09-07T09:31:00;26.20;73.60
26186;DHT22;20067;48.764;9.176;2023-09-07T09:33:30;26.60;73.50
26186;DHT22;20067;48.764;9.176;2023-09-07T09:35:56;26.80;74.10
26186;DHT22;20067;48.764;9.176;2023-09-07T09:38:22;27.00;72.70
26186;DHT22;20067;48.764;9.176;2023-09-07T09:40:48;26.80;72.90
26186;DHT22;20067;48.764;9.176;2023-09-07T09:43:14;26.10;74.50
26186;DHT22;20067;48.764;9.176;2023-09-07T09:45:40;25.50;75.80
26186;DHT22;20067;48.764;9.176;2023-09-07T09:48:06;26.30;76.20
26186;DHT22;20067;48.764;9.176;2023-09-07T09:50:33;27.10;72.50
26186;DHT22;20067;48.764;9.176;2023-09-07T09:53:07;27.10;72.60
26186;DHT22;20067;48.764;9.176;2023-09-07T09:55:34;26.60;75.00
26186;DHT22;20067;48.764;9.176;2023-09-07T09:58:00;26.70;73.10
26186;DHT22;20067;48.764;9.176;2023-09-07T10:00:27;26.80;73.50
26186;DHT22;20067;48.764;9.176;2023-09-07T10:03:33;26.10;74.80
26186;DHT22;20067;48.764;9.176;2023-09-07T10:06:17;26.10;75.10
26186;DHT22;20067;48.764;9.176;2023-09-07T10:09:02;26.00;75.80
26186;DHT22;20067;48.764;9.176;2023-09-07T10:11:35;25.90;76.00
26186;DHT22;20067;48.764;9.176;2023-09-07T10:14:04;26.20;75.50
26186;DHT22;20067;48.764;9.176;2023-09-07T10:19:18;27.80;72.90
26186;DHT22;20067;48.764;9.176;2023-09-07T10:21:44;27.80;72.30
26186;DHT22;20067;48.764;9.176;2023-09-07T10:24:10;28.00;71.00
26186;DHT22;20067;48.764;9.176;2023-09-07T10:26:37;27.60;71.90
26186;DHT22;20067;48.764;9.176;2023-09-07T10:29:02;27.30;72.30
26186;DHT22;20067;48.764;9.176;2023-09-07T10:31:31;27.40;72.30
26186;DHT22;20067;48.764;9.176;2023-09-07T10:34:08;27.10;73.60
26186;DHT22;20067;48.764;9.176;2023-09-07T10:36:36;27.90;71.20
26186;DHT22;20067;48.764;9.176;2023-09-07T10:39:03;28.20;70.60
26186;DHT22;20067;48.764;9.176;2023-09-07T10:41:43;29.10;69.30
26186;DHT22;20067;48.764;9.176;2023-09-07T10:44:09;29.60;66.90
26186;DHT22;20067;48.764;9.176;2023-09-07T10:46:39;30.70;64.90
26186;DHT22;20067;48.764;9.176;2023-09-07T10:49:07;30.90;65.20
26186;DHT22;20067;48.764;9.176;2023-09-07T10:51:41;31.10;64.20
26186;DHT22;20067;48.764;9.176;2023-09-07T10:54:17;30.50;65.70
26186;DHT22;20067;48.764;9.176;2023-09-07T10:56:44;31.30;64.10
26186;DHT22;20067;48.764;9.176;2023-09-07T10:59:12;31.70;62.90
26186;DHT22;20067;48.764;9.176;2023-09-07T11:01:38;31.50;63.70
26186;DHT22;20067;48.764;9.176;2023-09-07T11:04:04;31.00;64.30
26186;DHT22;20067;48.764;9.176;2023-09-07T11:06:30;31.70;63.90
26186;DHT22;20067;48.764;9.176;2023-09-07T11:08:59;32.30;61.80
26186;DHT22;20067;48.764;9.176;2023-09-07T11:11:26;33.20;61.10
26186;DHT22;20067;48.764;9.176;2023-09-07T11:13:52;32.70;60.80
26186;DHT22;20067;48.764;9.176;2023-09-07T11:16:34;32.60;61.10
26186;DHT22;20067;48.764;9.176;2023-09-07T11:19:04;32.00;62.70
26186;DHT22;20067;48.764;9.176;2023-09-07T11:21:31;33.90;60.10
26186;DHT22;20067;48.764;9.176;2023-09-07T11:23:58;35.30;56.40
26186;DHT22;20067;48.764;9.176;2023-09-07T11:26:24;34.80;57.20
26186;DHT22;20067;48.764;9.176;2023-09-07T11:28:49;33.70;58.80
26186;DHT22;20067;48.764;9.176;2023-09-07T11:31:18;33.00;60.30
26186;DHT22;20067;48.764;9.176;2023-09-07T11:33:46;34.50;59.30
26186;DHT22;20067;48.764;9.176;2023-09-07T11:36:12;34.30;57.70
26186;DHT22;20067;48.764;9.176;2023-09-07T11:38:38;34.30;57.80
26186;DHT22;20067;48.764;9.176;2023-09-07T11:41:10;33.40;59.90
26186;DHT22;20067;48.764;9.176;2023-09-07T11:43:36;35.30;57.00
26186;DHT22;20067;48.764;9.176;2023-09-07T11:46:02;36.20;54.60
26186;DHT22;20067;48.764;9.176;2023-09-07T11:48:29;36.10;54.80
26186;DHT22;20067;48.764;9.176;2023-09-07T11:50:54;36.00;54.90
26186;DHT22;20067;48.764;9.176;2023-09-07T11:53:20;35.40;55.60
26186;DHT22;20067;48.764;9.176;2023-09-07T11:55:46;35.60;56.10
26186;DHT22;20067;48.764;9.176;2023-09-07T11:58:12;35.30;55.70
26186;DHT22;20067;48.764;9.176;2023-09-07T12:00:38;36.30;54.20
26186;DHT22;20067;48.764;9.176;2023-09-07T12:03:07;36.60;53.90
26186;DHT22;20067;48.764;9.176;2023-09-07T12:05:32;37.70;52.20
26186;DHT22;20067;48.764;9.176;2023-09-07T12:07:58;38.90;50.40
26186;DHT22;20067;48.764;9.176;2023-09-07T12:10:24;38.00;51.70
26186;DHT22;20067;48.764;9.176;2023-09-07T12:12:49;37.50;52.30
26186;DHT22;20067;48.764;9.176;2023-09-07T12:15:15;36.80;54.00
26186;DHT22;20067;48.764;9.176;2023-09-07T12:17:41;37.70;51.70
26186;DHT22;20067;48.764;9.176;2023-09-07T12:20:07;37.40;53.10
26186;DHT22;20067;48.764;9.176;2023-09-07T12:22:36;35.80;54.70
26186;DHT22;20067;48.764;9.176;2023-09-07T12:25:06;36.60;54.40
26186;DHT22;20067;48.764;9.176;2023-09-07T12:27:35;36.80;53.20
26186;DHT22;20067;48.764;9.176;2023-09-07T12:30:04;36.90;53.60
26186;DHT22;20067;48.764;9.176;2023-09-07T12:32:33;37.30;52.00
26186;DHT22;20067;48.764;9.176;2023-09-07T12:34:59;37.40;51.80
26186;DHT22;20067;48.764;9.176;2023-09-07T12:37:25;37.80;51.40
26186;DHT22;20067;48.764;9.176;2023-09-07T12:39:51;36.40;53.60
26186;DHT22;20067;48.764;9.176;2023-09-07T12:42:17;37.30;52.20
26186;DHT22;20067;48.764;9.176;2023-09-07T12:44:43;37.50;51.20
26186;DHT22;20067;48.764;9.176;2023-09-07T12:47:09;38.00;50.40
26186;DHT22;20067;48.764;9.176;2023-09-07T12:49:34;37.50;51.50
26186;DHT22;20067;48.764;9.176;2023-09-07T12:52:00;37.80;50.80
26186;DHT22;20067;48.764;9.176;2023-09-07T12:54:27;39.00;49.60
26186;DHT22;20067;48.764;9.176;2023-09-07T12:56:52;41.00;46.90
26186;DHT22;20067;48.764;9.176;2023-09-07T12:59:18;43.00;44.60
26186;DHT22;20067;48.764;9.176;2023-09-07T13:01:43;42.40;44.10
26186;DHT22;20067;48.764;9.176;2023-09-07T13:04:09;40.70;46.00
26186;DHT22;20067;48.764;9.176;2023-09-07T13:06:37;37.30;50.80
26186;DHT22;20067;48.764;9.176;2023-09-07T13:09:03;36.90;51.60
26186;DHT22;20067;48.764;9.176;2023-09-07T13:11:30;37.80;50.20
26186;DHT22;20067;48.764;9.176;2023-09-07T13:13:55;38.60;48.60
26186;DHT22;20067;48.764;9.176;2023-09-07T13:16:21;39.70;48.20
26186;DHT22;20067;48.764;9.176;2023-09-07T13:18:47;39.30;48.30
26186;DHT22;20067;48.764;9.176;2023-09-07T13:21:12;39.30;47.30
26186;DHT22;20067;48.764;9.176;2023-09-07T13:23:38;37.40;49.80
26186;DHT22;20067;48.764;9.176;2023-09-07T13:26:03;35.80;52.10
26186;DHT22;20067;48.764;9.176;2023-09-07T13:28:29;36.10;52.20
26186;DHT22;20067;48.764;9.176;2023-09-07T13:30:55;37.30;50.70
26186;DHT22;20067;48.764;9.176;2023-09-07T13:33:20;38.30;48.40
26186;DHT22;20067;48.764;9.176;2023-09-07T13:35:46;38.90;47.90
26186;DHT22;20067;48.764;9.176;2023-09-07T13:38:13;37.20;49.90
26186;DHT22;20067;48.764;9.176;2023-09-07T13:40:38;36.30;51.70
26186;DHT22;20067;48.764;9.176;2023-09-07T13:43:04;36.60;51.60
26186;DHT22;20067;48.764;9.176;2023-09-07T13:45:30;38.10;49.40
26186;DHT22;20067;48.764;9.176;2023-09-07T13:47:56;38.10;48.70
26186;DHT22;20067;48.764;9.176;2023-09-07T13:50:22;38.70;48.60
26186;DHT22;20067;48.764;9.176;2023-09-07T13:52:48;38.10;49.40
26186;DHT22;20067;48.764;9.176;2023-09-07T13:55:14;38.90;47.60
26186;DHT22;20067;48.764;9.176;2023-09-07T13:57:40;39.50;47.10
26186;DHT22;20067;48.764;9.176;2023-09-07T14:00:06;38.60;47.60
26186;DHT22;20067;48.764;9.176;2023-09-07T14:02:32;38.20;48.40
26186;DHT22;20067;48.764;9.176;2023-09-07T14:05:00;39.20;47.40
26186;DHT22;20067;48.764;9.176;2023-09-07T14:07:26;37.30;49.90
26186;DHT22;20067;48.764;9.176;2023-09-07T14:09:53;37.10;50.20
26186;DHT22;20067;48.764;9.176;2023-09-07T14:12:19;36.40;51.20
26186;DHT22;20067;48.764;9.176;2023-09-07T14:14:45;36.00;52.20
26186;DHT22;20067;48.764;9.176;2023-09-07T14:17:10;38.10;49.70
26186;DHT22;20067;48.764;9.176;2023-09-07T14:19:36;39.60;48.00
26186;DHT22;20067;48.764;9.176;2023-09-07T14:22:02;40.40;46.10
26186;DHT22;20067;48.764;9.176;2023-09-07T14:24:27;39.90;46.50
26186;DHT22;20067;48.764;9.176;2023-09-07T14:26:53;40.60;45.70
26186;DHT22;20067;48.764;9.176;2023-09-07T14:29:19;39.00;47.00
26186;DHT22;20067;48.764;9.176;2023-09-07T14:31:45;38.90;47.90
26186;DHT22;20067;48.764;9.176;2023-09-07T14:34:12;37.80;49.10
26186;DHT22;20067;48.764;9.176;2023-09-07T14:36:38;39.60;47.00
26186;DHT22;20067;48.764;9.176;2023-09-07T14:39:06;40.90;45.50
26186;DHT22;20067;48.764;9.176;2023-09-07T14:41:32;39.80;46.50
26186;DHT22;20067;48.764;9.176;2023-09-07T14:43:59;40.60;45.80
26186;DHT22;20067;48.764;9.176;2023-09-07T14:46:25;40.90;46.40
26186;DHT22;20067;48.764;9.176;2023-09-07T14:48:51;40.10;45.90
26186;DHT22;20067;48.764;9.176;2023-09-07T14:51:17;39.30;47.10
26186;DHT22;20067;48.764;9.176;2023-09-07T14:53:43;38.10;48.70
26186;DHT22;20067;48.764;9.176;2023-09-07T14:56:09;37.50;49.60
26186;DHT22;20067;48.764;9.176;2023-09-07T14:58:35;37.00;50.40
26186;DHT22;20067;48.764;9.176;2023-09-07T15:01:01;37.50;50.20
26186;DHT22;20067;48.764;9.176;2023-09-07T15:03:26;37.10;49.80
26186;DHT22;20067;48.764;9.176;2023-09-07T15:05:52;36.40;51.00
26186;DHT22;20067;48.764;9.176;2023-09-07T15:08:18;35.60;52.00
26186;DHT22;20067;48.764;9.176;2023-09-07T15:10:43;36.10;52.00
26186;DHT22;20067;48.764;9.176;2023-09-07T15:13:11;37.60;49.50
26186;DHT22;20067;48.764;9.176;2023-09-07T15:15:37;37.00;49.70
26186;DHT22;20067;48.764;9.176;2023-09-07T15:18:08;35.50;52.10
26186;DHT22;20067;48.764;9.176;2023-09-07T15:20:34;35.60;52.30
26186;DHT22;20067;48.764;9.176;2023-09-07T15:23:00;34.70;54.10
26186;DHT22;20067;48.764;9.176;2023-09-07T15:25:25;34.50;54.80
26186;DHT22;20067;48.764;9.176;2023-09-07T15:27:52;34.50;55.90
26186;DHT22;20067;48.764;9.176;2023-09-07T15:30:18;33.10;56.50
26186;DHT22;20067;48.764;9.176;2023-09-07T15:32:44;31.90;59.10